Time;durP1;ratioP1;P1;durP2;ratioP2;P2;SDS_P1;SDS_P2;PMS_P1;PMS_P2;Temp;Humidity;BMP_temperature;BMP_pressure;BME280_temperature;BME280_humidity;BME280_pressure;Samples;Min_cycle;Max_cycle;Signal;HPM_P1;HPM_P2
2022/10/09 00:00:36;;;;;;;4.43;2.60;;;;;;;24.09;42.81;97199.09;5015034;28;20613;-42
2022/10/09 00:03:01;;;;;;;2.63;2.35;;;;;;;24.03;42.92;97190.00;5020604;28;20033;-42
2022/10/09 00:05:27;;;;;;;3.78;2.50;;;;;;;24.05;43.00;97184.72;5014470;28;20112;-43
2022/10/09 00:07:53;;;;;;;3.65;2.60;;;;;;;24.06;43.14;97186.25;5013857;28;20036;-42
2022/10/09 00:10:19;;;;;;;3.40;2.85;;;;;;;24.02;43.34;97194.03;5012364;28;20389;-42
2022/10/09 00:12:46;;;;;;;5.03;3.10;;;;;;;23.96;43.68;97189.22;5013912;28;20034;-42
2022/10/09 00:15:11;;;;;;;2.50;2.30;;;;;;;24.03;43.56;97195.53;5013538;28;20028;-43
2022/10/09 00:17:37;;;;;;;3.33;2.50;;;;;;;24.05;43.75;97190.25;5026983;28;20059;-42
2022/10/09 00:20:03;;;;;;;3.25;2.95;;;;;;;23.97;43.71;97199.06;5033535;28;20086;-42
2022/10/09 00:22:29;;;;;;;3.10;2.50;;;;;;;24.05;43.70;97188.25;5033307;28;20028;-43
2022/10/09 00:24:54;;;;;;;3.53;2.50;;;;;;;24.07;43.64;97191.28;5033161;28;20021;-41
2022/10/09 00:27:23;;;;;;;3.25;2.45;;;;;;;23.94;44.27;97183.44;5033581;28;20014;-42
2022/10/09 00:29:49;;;;;;;3.45;3.03;;;;;;;23.99;44.05;97185.44;5017097;28;20025;-42
2022/10/09 00:32:14;;;;;;;4.38;2.95;;;;;;;23.99;44.25;97188.22;5011479;28;20083;-43
2022/10/09 00:34:41;;;;;;;4.35;2.85;;;;;;;24.07;43.99;97191.28;5013486;28;20413;-42
2022/10/09 00:37:06;;;;;;;5.25;2.95;;;;;;;24.01;44.11;97190.50;5013505;28;20037;-42
2022/10/09 00:39:32;;;;;;;3.15;2.67;;;;;;;23.94;44.45;97185.44;5013092;28;20050;-42
2022/10/09 00:41:57;;;;;;;3.35;2.78;;;;;;;23.94;44.40;97188.22;5013568;28;20058;-42
2022/10/09 00:45:01;;;;;;;3.75;3.00;;;;;;;23.96;44.13;97180.16;5013261;28;20029;-41
2022/10/09 00:47:32;;;;;;;3.33;2.75;;;;;;;24.04;44.11;97175.66;5012085;28;20038;-42
2022/10/09 00:50:10;;;;;;;3.28;2.90;;;;;;;23.96;44.29;97175.38;5013314;28;20390;-42
2022/10/09 00:52:37;;;;;;;4.47;3.10;;;;;;;23.99;44.50;97174.34;5013293;28;20057;-42
2022/10/09 00:55:05;;;;;;;3.38;2.75;;;;;;;23.91;44.72;97170.56;5014534;28;20366;-43
2022/10/09 00:57:32;;;;;;;3.47;2.60;;;;;;;23.93;44.64;97165.28;5017018;28;20463;-41
2022/10/09 01:00:02;;;;;;;3.28;2.80;;;;;;;23.94;44.66;97168.81;5017063;28;20104;-42
2022/10/09 01:02:28;;;;;;;3.13;2.80;;;;;;;23.96;44.48;97164.28;5017060;28;20021;-41
2022/10/09 01:04:53;;;;;;;3.15;2.80;;;;;;;24.05;44.43;97171.63;5016962;28;20096;-42
2022/10/09 01:07:37;;;;;;;3.47;2.60;;;;;;;24.06;44.32;97166.84;5016872;28;20021;-42
2022/10/09 01:10:09;;;;;;;3.42;3.10;;;;;;;24.10;44.24;97157.03;5016790;28;20068;-43
2022/10/09 01:12:56;;;;;;;3.37;2.83;;;;;;;24.09;44.33;97154.75;5017058;28;20026;-42
2022/10/09 01:15:40;;;;;;;4.53;2.75;;;;;;;24.10;44.62;97153.50;5016741;28;20026;-42
2022/10/09 01:18:16;;;;;;;3.17;2.70;;;;;;;24.11;44.31;97152.25;5016739;28;20107;-42
2022/10/09 01:20:50;;;;;;;4.38;2.70;;;;;;;24.08;44.32;97150.47;5016805;28;20105;-42
2022/10/09 01:23:31;;;;;;;3.30;2.83;;;;;;;24.10;44.54;97145.97;5016644;28;20120;-42
2022/10/09 01:26:05;;;;;;;3.17;2.67;;;;;;;24.15;44.54;97152.75;5016486;28;20092;-42
2022/10/09 01:28:32;;;;;;;3.17;2.47;;;;;;;24.19;44.41;97145.72;5016807;28;20459;-42
2022/10/09 01:31:01;;;;;;;4.15;2.60;;;;;;;24.11;44.45;97147.44;5016446;28;20386;-42
2022/10/09 01:33:29;;;;;;;4.13;3.00;;;;;;;24.10;44.63;97150.75;5016342;28;20095;-43
2022/10/09 01:35:55;;;;;;;3.80;3.05;;;;;;;24.10;44.66;97145.97;5016329;28;20026;-41
2022/10/09 01:38:23;;;;;;;2.95;2.70;;;;;;;24.13;44.65;97147.72;5016300;28;20049;-42
2022/10/09 01:40:51;;;;;;;3.17;2.60;;;;;;;24.11;44.81;97143.94;5016512;28;20113;-42
2022/10/09 01:43:16;;;;;;;4.50;3.17;;;;;;;24.12;44.69;97142.66;5016431;28;20046;-41
2022/10/09 01:45:44;;;;;;;3.25;2.42;;;;;;;24.14;44.97;97151.25;5016353;28;20427;-42
2022/10/09 01:48:22;;;;;;;3.83;2.72;;;;;;;24.16;44.47;97148.72;5015999;28;20032;-42
2022/10/09 01:50:55;;;;;;;4.07;2.58;;;;;;;24.14;44.98;97142.91;5016560;28;20037;-42
2022/10/09 01:53:22;;;;;;;;;;;;;;;24.16;44.94;97138.41;5016866;28;20030;-43
2022/10/09 01:56:11;;;;;;;3.67;2.78;;;;;;;24.15;44.74;97145.19;5015908;28;19919;-42
2022/10/09 01:58:52;;;;;;;3.55;2.70;;;;;;;24.13;45.04;97144.19;5014608;28;20352;-42
2022/10/09 02:01:26;;;;;;;2.70;2.50;;;;;;;24.20;44.82;97149.25;5015875;28;20058;-43
2022/10/09 02:03:53;;;;;;;3.75;2.70;;;;;;;24.17;44.97;97141.94;5016089;28;20025;-42
2022/10/09 02:06:19;;;;;;;3.85;2.78;;;;;;;24.11;45.02;97141.16;5013332;28;20065;-41
2022/10/09 02:08:49;;;;;;;3.58;2.88;;;;;;;24.18;45.17;97146.22;5015807;28;20022;-42
2022/10/09 02:11:15;;;;;;;2.90;2.47;;;;;;;24.15;45.06;97144.44;5015708;28;20482;-41
2022/10/09 02:13:42;;;;;;;4.35;2.80;;;;;;;24.17;45.04;97139.91;5015774;28;20033;-42
2022/10/09 02:16:35;;;;;;;3.65;3.08;;;;;;;24.14;44.99;97140.91;5015402;28;20026;-43
2022/10/09 02:19:04;;;;;;;3.08;2.60;;;;;;;24.20;44.91;97143.72;5015570;28;20025;-42
2022/10/09 02:21:44;;;;;;;3.95;2.70;;;;;;;24.15;45.18;97141.66;5015790;28;20032;-43
2022/10/09 02:24:13;;;;;;;4.10;2.83;;;;;;;24.18;45.06;97138.66;5015579;28;20053;-42
2022/10/09 02:26:40;;;;;;;2.85;2.40;;;;;;;24.09;45.22;97138.13;5015339;28;20033;-42
2022/10/09 02:29:06;;;;;;;4.47;3.40;;;;;;;24.17;45.21;97139.91;5015415;28;20049;-42
2022/10/09 02:31:38;;;;;;;3.97;2.70;;;;;;;24.12;45.22;97134.34;5015402;28;20418;-42
2022/10/09 02:34:15;;;;;;;2.97;2.67;;;;;;;24.17;45.07;97139.16;5015482;28;20076;-43
2022/10/09 02:36:40;;;;;;;5.50;3.28;;;;;;;24.18;45.11;97140.69;5014179;28;20109;-43
2022/10/09 02:39:07;;;;;;;3.70;3.28;;;;;;;24.21;44.76;97137.66;5015030;28;20046;-43
2022/10/09 02:41:33;;;;;;;2.90;2.70;;;;;;;24.19;44.99;97142.19;5015133;28;20095;-43
2022/10/09 02:43:59;;;;;;;5.03;3.15;;;;;;;24.15;45.30;97134.13;5015223;28;20370;-42
2022/10/09 02:46:25;;;;;;;4.22;2.78;;;;;;;24.23;44.76;97132.38;5015109;28;20022;-42
2022/10/09 02:48:50;;;;;;;4.40;2.90;;;;;;;24.11;44.90;97141.16;5015240;28;20029;-42
2022/10/09 02:51:16;;;;;;;3.67;2.88;;;;;;;24.16;45.12;97140.41;5014807;28;20507;-43
2022/10/09 02:53:42;;;;;;;3.75;2.92;;;;;;;24.19;45.08;97139.41;5015082;28;20438;-42
2022/10/09 02:56:08;;;;;;;3.70;2.70;;;;;;;24.17;45.10;97141.94;5014856;28;20101;-43
2022/10/09 02:58:36;;;;;;;4.65;3.28;;;;;;;24.15;45.02;97139.66;5014989;28;20172;-41
2022/10/09 03:01:03;;;;;;;4.35;2.88;;;;;;;24.17;44.95;97145.47;5014889;28;20108;-42
2022/10/09 03:03:29;;;;;;;4.38;3.30;;;;;;;24.16;45.06;97132.09;5014713;28;20022;-43
2022/10/09 03:06:15;;;;;;;4.15;3.00;;;;;;;24.03;45.41;97134.59;5014662;28;20037;-42
2022/10/09 03:08:43;;;;;;;5.32;3.22;;;;;;;24.06;45.40;97134.34;5015086;28;20073;-42
2022/10/09 03:11:10;;;;;;;3.42;2.85;;;;;;;24.06;45.20;97136.38;5014514;28;20022;-43
2022/10/09 03:13:35;;;;;;;4.32;3.00;;;;;;;24.03;45.29;97129.03;5014673;28;20030;-42
2022/10/09 03:16:09;;;;;;;5.47;3.58;;;;;;;24.14;44.99;97129.06;5014618;28;20026;-43
2022/10/09 03:18:36;;;;;;;3.47;2.88;;;;;;;24.10;45.02;97118.25;5013912;28;20466;-42
2022/10/09 03:21:06;;;;;;;3.83;3.05;;;;;;;24.12;45.00;97118.47;5014562;28;20030;-42
2022/10/09 03:23:32;;;;;;;3.35;2.70;;;;;;;24.10;44.98;97121.03;5014417;28;20026;-42
2022/10/09 03:25:59;;;;;;;5.28;3.25;;;;;;;24.11;45.17;97119.72;5014402;28;20029;-42
2022/10/09 03:28:24;;;;;;;3.35;2.80;;;;;;;24.09;45.22;97118.75;5014348;28;20029;-42
2022/10/09 03:30:51;;;;;;;3.13;2.80;;;;;;;24.09;45.52;97118.75;5014259;28;20508;-42
2022/10/09 03:33:16;;;;;;;4.47;3.08;;;;;;;24.13;44.91;97116.47;5014246;28;20022;-43
2022/10/09 03:35:41;;;;;;;5.13;3.28;;;;;;;24.09;45.24;97116.72;5014186;28;20033;-42
2022/10/09 03:38:07;;;;;;;3.90;3.22;;;;;;;24.13;45.28;97117.22;5014064;28;20644;-42
2022/10/09 03:40:32;;;;;;;4.53;3.25;;;;;;;24.10;44.91;97109.19;5014163;28;20034;-41
2022/10/09 03:42:58;;;;;;;4.05;3.30;;;;;;;24.07;45.15;97115.72;5014121;28;20076;-42
2022/10/09 03:45:23;;;;;;;3.53;3.20;;;;;;;24.07;45.27;97119.25;5014191;28;20029;-43
2022/10/09 03:47:49;;;;;;;3.80;3.40;;;;;;;24.11;45.07;97113.47;5013895;28;20437;-43
2022/10/09 03:50:14;;;;;;;4.13;3.50;;;;;;;24.07;45.39;97110.94;5014002;28;20034;-42
2022/10/09 03:52:40;;;;;;;3.53;3.03;;;;;;;24.11;45.15;97114.19;5013924;28;20021;-43
2022/10/09 03:55:06;;;;;;;4.75;4.22;;;;;;;24.08;45.27;97125.53;5013877;28;20378;-42
2022/10/09 03:57:33;;;;;;;3.40;3.10;;;;;;;24.11;45.28;97130.09;5013820;28;20026;-42
2022/10/09 03:59:58;;;;;;;3.92;2.92;;;;;;;24.08;45.40;97125.53;5014050;28;20101;-43
2022/10/09 04:02:24;;;;;;;4.20;3.35;;;;;;;24.00;45.59;97126.00;5014051;28;20036;-43
2022/10/09 04:04:49;;;;;;;3.78;3.33;;;;;;;24.09;45.30;97121.50;5013799;28;20017;-41
2022/10/09 04:07:15;;;;;;;3.50;3.00;;;;;;;24.08;45.27;97126.31;5013770;28;20072;-42
2022/10/09 04:09:40;;;;;;;4.22;3.30;;;;;;;24.07;45.55;97124.03;5013832;28;20033;-42
2022/10/09 04:12:06;;;;;;;4.53;2.85;;;;;;;24.05;45.59;97132.06;5013854;28;20039;-41
2022/10/09 04:14:32;;;;;;;4.43;3.05;;;;;;;24.07;45.51;97135.09;5013790;28;20030;-42
2022/10/09 04:17:02;;;;;;;4.30;3.33;;;;;;;24.09;45.52;97132.59;5013625;28;20022;-42
2022/10/09 04:19:28;;;;;;;4.40;3.35;;;;;;;24.10;45.47;97129.34;5013832;28;20057;-42
2022/10/09 04:21:53;;;;;;;4.20;3.20;;;;;;;24.09;45.60;97136.13;5013959;28;20391;-43
2022/10/09 04:24:19;;;;;;;4.05;3.30;;;;;;;24.08;45.72;97125.53;5013680;28;20026;-42
2022/10/09 04:26:44;;;;;;;4.75;3.30;;;;;;;24.07;45.63;97124.78;5013415;28;20022;-42
2022/10/09 04:29:10;;;;;;;3.25;2.95;;;;;;;24.03;45.80;97129.03;5013592;28;20108;-43
2022/10/09 04:31:36;;;;;;;3.65;3.05;;;;;;;24.02;45.94;97138.59;5017527;28;20033;-42
2022/10/09 04:34:01;;;;;;;3.28;2.95;;;;;;;24.07;45.94;97129.56;5017667;28;20026;-42
2022/10/09 04:36:27;;;;;;;4.03;3.05;;;;;;;24.04;45.89;97142.41;5017394;28;20026;-42
2022/10/09 04:38:53;;;;;;;3.10;2.70;;;;;;;24.05;45.96;97143.16;5017339;28;20050;-42
2022/10/09 04:41:18;;;;;;;4.45;3.22;;;;;;;24.02;45.93;97141.38;5017547;28;20032;-42
2022/10/09 04:43:44;;;;;;;4.43;3.60;;;;;;;23.99;46.29;97154.97;5017421;28;20026;-42
2022/10/09 04:46:12;;;;;;;4.32;3.20;;;;;;;24.01;45.96;97157.25;5017235;28;20022;-43
2022/10/09 04:48:43;;;;;;;4.90;3.53;;;;;;;24.04;45.98;97156.25;5017511;28;20105;-43
2022/10/09 04:51:10;;;;;;;3.97;3.30;;;;;;;23.99;45.84;97156.97;5017194;28;20108;-43
2022/10/09 04:53:36;;;;;;;5.60;3.10;;;;;;;24.05;45.74;97166.09;5017352;28;20367;-42
2022/10/09 04:56:08;;;;;;;4.15;2.92;;;;;;;24.00;46.19;97152.94;5017001;28;20474;-43
2022/10/09 04:58:35;;;;;;;3.45;3.00;;;;;;;23.96;45.96;97167.06;5017123;28;20026;-43
2022/10/09 05:01:12;;;;;;;4.32;3.08;;;;;;;23.97;46.06;97163.03;5015860;28;20441;-40
2022/10/09 05:03:38;;;;;;;3.50;3.00;;;;;;;24.02;45.83;97182.94;5017157;28;20045;-43
2022/10/09 05:06:07;;;;;;;3.53;3.20;;;;;;;23.99;46.18;97171.59;5017037;28;20045;-42
2022/10/09 05:08:33;;;;;;;8.25;3.60;;;;;;;23.94;46.30;97175.13;5016898;28;20021;-41
2022/10/09 05:11:08;;;;;;;3.35;2.85;;;;;;;23.93;46.22;97170.81;5016883;28;20064;-42
2022/10/09 05:13:37;;;;;;;3.35;2.67;;;;;;;23.97;46.20;97162.28;5017070;28;20450;-42
2022/10/09 05:16:11;;;;;;;4.75;3.60;;;;;;;23.96;46.25;97161.53;5016761;28;20116;-42
2022/10/09 05:18:44;;;;;;;3.60;3.25;;;;;;;23.95;46.20;97168.31;5016907;28;20033;-41
2022/10/09 05:21:10;;;;;;;6.47;3.30;;;;;;;23.96;46.43;97175.38;5036189;28;20036;-42
2022/10/09 05:23:36;;;;;;;4.82;3.53;;;;;;;23.88;46.72;97179.09;5036540;28;20104;-43
2022/10/09 05:26:13;;;;;;;3.85;3.15;;;;;;;23.92;46.46;97182.41;5036422;28;20462;-42
2022/10/09 05:28:39;;;;;;;3.63;2.90;;;;;;;23.92;46.21;97176.84;5036445;28;20060;-42
2022/10/09 05:31:07;;;;;;;5.40;3.20;;;;;;;23.96;46.49;97182.94;5036456;28;20026;-42
2022/10/09 05:33:33;;;;;;;3.47;3.17;;;;;;;23.93;46.59;97181.91;5036279;28;20374;-41
2022/10/09 05:36:00;;;;;;;4.28;3.65;;;;;;;23.90;46.49;97176.59;5036195;28;20029;-42
2022/10/09 05:38:27;;;;;;;5.55;3.45;;;;;;;23.91;46.54;97169.81;5035841;28;20427;-43
2022/10/09 05:40:59;;;;;;;4.32;3.15;;;;;;;23.90;46.52;97174.59;5036049;28;20055;-41
2022/10/09 05:43:32;;;;;;;4.93;3.33;;;;;;;23.91;46.51;97167.78;5036123;28;20028;-42
2022/10/09 05:46:07;;;;;;;4.13;3.05;;;;;;;23.94;46.53;97177.88;5036110;28;20037;-43
2022/10/09 05:48:32;;;;;;;3.83;3.25;;;;;;;23.90;46.28;97180.13;5036150;28;20048;-43
2022/10/09 05:51:08;;;;;;;4.00;3.35;;;;;;;23.92;46.31;97180.38;5036084;28;20048;-42
2022/10/09 05:53:34;;;;;;;3.60;2.90;;;;;;;23.94;46.27;97183.44;5035976;28;20473;-43
2022/10/09 05:56:31;;;;;;;3.65;2.80;;;;;;;23.91;46.35;97184.41;5035887;28;20037;-43
2022/10/09 05:59:05;;;;;;;3.67;2.90;;;;;;;23.89;46.60;97186.91;5035801;28;20068;-42
2022/10/09 06:01:33;;;;;;;3.50;3.05;;;;;;;23.94;46.36;97186.19;5035615;28;20029;-42
2022/10/09 06:04:00;;;;;;;3.60;3.30;;;;;;;23.95;46.35;97181.41;5035948;28;20033;-43
2022/10/09 06:06:28;;;;;;;3.53;3.13;;;;;;;23.98;46.08;97172.13;5035608;28;20017;-43
2022/10/09 06:08:54;;;;;;;3.92;3.00;;;;;;;23.90;46.67;97173.81;5035591;28;20017;-43
2022/10/09 06:11:35;;;;;;;4.60;3.47;;;;;;;23.91;46.31;97170.56;5034161;28;20357;-41
2022/10/09 06:14:01;;;;;;;4.13;2.88;;;;;;;23.89;46.53;97178.59;5034424;28;20370;-42
2022/10/09 06:16:30;;;;;;;3.55;3.25;;;;;;;23.92;46.42;97177.63;5035389;28;20049;-42
2022/10/09 06:18:55;;;;;;;3.58;3.28;;;;;;;23.95;46.64;97186.97;5035490;28;20484;-43
2022/10/09 06:21:22;;;;;;;4.47;3.25;;;;;;;23.89;46.57;97178.59;5035151;28;20029;-42
2022/10/09 06:23:50;;;;;;;3.22;2.90;;;;;;;23.88;46.63;97190.19;5035511;28;20018;-42
2022/10/09 06:26:15;;;;;;;4.18;3.00;;;;;;;23.91;46.56;97195.50;5035159;28;20021;-42
2022/10/09 06:28:40;;;;;;;5.32;3.38;;;;;;;23.92;46.62;97204.56;5035226;28;20033;-42
2022/10/09 06:31:07;;;;;;;5.55;3.10;;;;;;;23.94;46.75;97194.50;5035308;28;20025;-42
2022/10/09 06:33:36;;;;;;;3.58;3.28;;;;;;;23.89;46.67;97200.78;5035435;28;20112;-41
2022/10/09 06:36:04;;;;;;;4.00;2.88;;;;;;;23.91;46.87;97201.03;5034947;28;20032;-43
2022/10/09 06:38:29;;;;;;;3.47;3.10;;;;;;;23.91;46.82;97205.81;5034867;28;20077;-42
2022/10/09 06:41:00;;;;;;;3.70;3.08;;;;;;;23.91;47.09;97205.81;5034944;28;20064;-42
2022/10/09 06:43:25;;;;;;;4.18;3.30;;;;;;;23.95;46.80;97206.34;5034941;28;20025;-43
2022/10/09 06:45:50;;;;;;;5.00;3.15;;;;;;;23.91;47.16;97209.34;5034886;28;20021;-43
2022/10/09 06:48:16;;;;;;;5.70;4.28;;;;;;;23.93;47.14;97206.09;5034813;28;20033;-42
2022/10/09 06:50:41;;;;;;;3.42;2.95;;;;;;;23.90;47.08;97210.59;5031617;28;20028;-41
2022/10/09 06:53:07;;;;;;;3.63;3.13;;;;;;;23.95;46.84;97217.44;5032097;28;20025;-42
2022/10/09 06:55:32;;;;;;;4.45;3.20;;;;;;;23.94;46.98;97227.75;5032772;28;20033;-42
2022/10/09 06:57:58;;;;;;;4.72;3.22;;;;;;;23.92;47.02;97223.97;5032852;28;20036;-42
2022/10/09 07:00:23;;;;;;;8.10;3.00;;;;;;;23.93;47.06;97231.00;5032575;28;20103;-41
2022/10/09 07:02:49;;;;;;;4.05;2.95;;;;;;;23.88;46.89;97235.25;5016417;28;20462;-42
2022/10/09 07:05:15;;;;;;;5.82;3.30;;;;;;;23.92;46.75;97235.03;5011073;28;20037;-42
2022/10/09 07:07:41;;;;;;;3.15;2.85;;;;;;;23.91;47.26;97228.75;5012778;28;20053;-42
2022/10/09 07:10:08;;;;;;;6.32;3.30;;;;;;;23.87;47.30;97233.75;5012813;28;20474;-42
2022/10/09 07:12:37;;;;;;;3.40;3.03;;;;;;;23.90;47.55;97232.00;5011436;28;20436;-42
2022/10/09 07:15:04;;;;;;;4.18;3.22;;;;;;;23.87;47.92;97227.44;5012574;28;20034;-43
2022/10/09 07:17:29;;;;;;;4.18;2.90;;;;;;;23.85;47.84;97230.72;5012509;28;20080;-43
2022/10/09 07:19:55;;;;;;;4.05;2.95;;;;;;;23.87;47.67;97233.75;5012430;28;20033;-42
2022/10/09 07:22:21;;;;;;;4.10;3.17;;;;;;;23.90;47.62;97238.31;5012632;28;20026;-43
2022/10/09 07:24:47;;;;;;;5.40;3.13;;;;;;;23.62;48.19;97235.38;5012250;28;20045;-42
2022/10/09 07:27:13;;;;;;;4.30;3.25;;;;;;;23.72;48.70;97238.72;5012624;28;20167;-41
2022/10/09 07:29:39;;;;;;;4.82;3.30;;;;;;;23.81;48.57;97232.22;5012289;28;20097;-42
2022/10/09 07:32:04;;;;;;;5.88;3.22;;;;;;;23.80;48.14;97225.16;5012570;28;20029;-43
2022/10/09 07:34:29;;;;;;;3.28;3.00;;;;;;;23.87;48.08;97224.69;5012337;28;20026;-43
2022/10/09 07:36:55;;;;;;;5.53;3.70;;;;;;;23.77;48.40;97226.91;5012006;28;20432;-42
2022/10/09 07:39:20;;;;;;;3.83;2.78;;;;;;;23.79;48.07;97216.09;5027921;28;20049;-43
2022/10/09 07:41:49;;;;;;;4.15;3.30;;;;;;;23.81;48.15;97218.38;5031957;28;20033;-42
2022/10/09 07:44:14;;;;;;;4.40;3.20;;;;;;;23.80;48.19;97220.38;5027919;28;20049;-42
2022/10/09 07:46:40;;;;;;;5.32;3.28;;;;;;;23.83;48.19;97226.94;5015606;28;20081;-42
2022/10/09 07:49:05;;;;;;;4.85;3.30;;;;;;;23.78;48.55;97227.66;5022840;28;20036;-41
2022/10/09 07:51:31;;;;;;;4.55;3.30;;;;;;;23.83;48.22;97232.47;5020734;28;20053;-42
2022/10/09 07:53:59;;;;;;;4.13;3.33;;;;;;;23.87;48.12;97232.97;5031924;28;20386;-42
2022/10/09 07:56:31;;;;;;;3.53;3.22;;;;;;;23.76;48.11;97236.47;5031724;28;20424;-42
2022/10/09 07:58:59;;;;;;;3.00;2.70;;;;;;;23.70;48.23;97238.44;5031797;28;20054;-43
2022/10/09 08:01:28;;;;;;;3.63;2.80;;;;;;;23.74;48.30;97235.47;5031456;28;20033;-42
2022/10/09 08:03:55;;;;;;;6.22;3.10;;;;;;;23.77;48.14;97235.22;5029931;28;20022;-42
2022/10/09 08:06:21;;;;;;;3.70;3.17;;;;;;;23.80;48.65;97225.91;5031572;28;20021;-42
2022/10/09 08:08:50;;;;;;;4.95;3.38;;;;;;;23.87;48.03;97233.75;5031557;28;20036;-43
2022/10/09 08:11:16;;;;;;;3.63;2.85;;;;;;;23.75;48.04;97231.41;5031527;28;20040;-42
2022/10/09 08:13:43;;;;;;;6.50;3.00;;;;;;;23.84;48.33;97222.91;5016529;28;20028;-42
2022/10/09 08:16:10;;;;;;;3.40;3.05;;;;;;;23.79;48.30;97231.94;5013692;28;20030;-42
2022/10/09 08:18:36;;;;;;;3.50;3.20;;;;;;;23.76;48.24;97228.16;5013855;28;20026;-42
2022/10/09 08:21:05;;;;;;;4.10;3.30;;;;;;;23.71;48.68;97226.13;5013562;28;20036;-42
2022/10/09 08:23:31;;;;;;;4.63;3.10;;;;;;;23.78;48.20;97230.44;5013451;28;20028;-42
2022/10/09 08:25:56;;;;;;;4.85;3.67;;;;;;;23.81;48.36;97227.44;5013663;28;20017;-41
2022/10/09 08:28:22;;;;;;;3.75;3.05;;;;;;;23.86;48.32;97226.69;5013669;28;20057;-43
2022/10/09 08:30:48;;;;;;;4.22;3.55;;;;;;;23.77;48.24;97226.13;5013628;28;20057;-43
2022/10/09 08:33:13;;;;;;;3.65;3.20;;;;;;;23.82;48.72;97217.13;5013502;28;20097;-41
2022/10/09 08:35:39;;;;;;;3.83;3.10;;;;;;;23.84;48.30;97209.81;5013426;28;20034;-42
2022/10/09 08:38:04;;;;;;;4.78;3.00;;;;;;;23.73;48.66;97209.78;5013508;28;20026;-43
2022/10/09 08:40:58;;;;;;;4.07;3.25;;;;;;;23.80;48.53;97209.28;5013017;28;20025;-42
2022/10/09 08:43:33;;;;;;;3.78;2.92;;;;;;;23.82;48.40;97209.56;5012103;28;20038;-42
2022/10/09 08:46:11;;;;;;;4.15;3.05;;;;;;;23.81;48.45;97218.38;5012936;28;20057;-43
2022/10/09 08:48:42;;;;;;;4.18;3.08;;;;;;;23.81;48.74;97219.13;5013712;28;20026;-43
2022/10/09 08:51:17;;;;;;;3.20;2.90;;;;;;;23.78;48.54;97206.25;5030907;28;20727;-42
2022/10/09 08:54:04;;;;;;;4.78;2.85;;;;;;;23.68;49.04;97210.50;5030701;28;20037;-42
2022/10/09 08:56:32;;;;;;;4.90;2.95;;;;;;;23.77;48.78;97201.97;5031006;28;20034;-42
2022/10/09 08:58:57;;;;;;;3.40;2.80;;;;;;;23.76;48.77;97200.44;5031066;28;20467;-42
2022/10/09 09:01:43;;;;;;;4.20;3.13;;;;;;;23.82;48.56;97203.25;5030833;28;20055;-42
2022/10/09 09:04:12;;;;;;;3.30;3.00;;;;;;;23.73;48.92;97201.47;5031138;28;20061;-42
2022/10/09 09:06:55;;;;;;;5.93;3.22;;;;;;;23.82;48.74;97195.72;5031041;28;20060;-42
2022/10/09 09:09:32;;;;;;;4.38;2.80;;;;;;;23.79;48.61;97207.00;5031109;28;20021;-41
2022/10/09 09:12:24;;;;;;;3.53;3.08;;;;;;;23.78;48.51;97206.25;5030945;28;20100;-42
2022/10/09 09:15:06;;;;;;;3.80;2.83;;;;;;;23.80;48.74;97200.97;5030946;28;20049;-41
2022/10/09 09:18:19;;;;;;;4.38;3.35;;;;;;;23.82;48.46;97206.03;5034425;28;20033;-43
2022/10/09 09:20:52;;;;;;;;;;;;;;;23.73;48.85;97195.94;5034297;28;20079;-43
2022/10/09 09:23:22;;;;;;;3.92;3.20;;;;;;;23.79;48.75;97198.72;5034436;28;19913;-42
2022/10/09 09:25:48;;;;;;;4.22;3.40;;;;;;;23.84;48.77;97195.22;5034319;28;20044;-42
2022/10/09 09:28:33;;;;;;;3.90;3.20;;;;;;;23.81;48.83;97196.97;5034566;28;20639;-42
2022/10/09 09:30:59;;;;;;;5.53;3.42;;;;;;;23.80;48.79;97195.44;5034702;28;20043;-43
2022/10/09 09:33:39;;;;;;;3.97;3.53;;;;;;;23.80;49.19;97194.69;5034335;28;20074;-42
2022/10/09 09:36:22;;;;;;;4.20;3.20;;;;;;;23.71;49.52;97200.44;5034130;28;20026;-42
2022/10/09 09:38:49;;;;;;;5.63;3.70;;;;;;;23.73;48.85;97207.00;5034223;28;20053;-43
2022/10/09 09:41:14;;;;;;;4.55;3.60;;;;;;;23.71;49.06;97203.97;5032180;28;20068;-43
2022/10/09 09:43:40;;;;;;;5.65;3.97;;;;;;;23.83;48.75;97208.31;5033419;28;20056;-42
2022/10/09 09:46:13;;;;;;;6.40;4.32;;;;;;;23.70;48.98;97207.22;5034080;28;20456;-41
2022/10/09 09:48:42;;;;;;;5.18;3.85;;;;;;;23.67;49.52;97208.97;5033877;28;20032;-42
2022/10/09 09:51:21;;;;;;;4.50;3.67;;;;;;;23.76;48.76;97206.00;5034039;28;20040;-43
2022/10/09 09:53:53;;;;;;;5.22;3.83;;;;;;;23.78;48.91;97214.56;5034204;28;20029;-43
2022/10/09 09:56:19;;;;;;;6.20;4.43;;;;;;;23.79;48.77;97212.56;5033906;28;20477;-43
2022/10/09 09:58:50;;;;;;;5.60;3.83;;;;;;;23.80;48.90;97217.59;5033853;28;20037;-42
2022/10/09 10:01:21;;;;;;;5.97;4.45;;;;;;;23.69;49.16;97216.78;5033692;28;20801;-41
2022/10/09 10:03:49;;;;;;;4.22;3.40;;;;;;;23.72;48.79;97221.34;5033877;28;20033;-42
2022/10/09 10:06:29;;;;;;;5.43;4.10;;;;;;;23.78;48.98;97220.09;5033832;28;20108;-42
2022/10/09 10:09:03;;;;;;;6.70;4.63;;;;;;;23.78;48.93;97220.09;5033716;28;20110;-42
2022/10/09 10:11:30;;;;;;;4.82;3.60;;;;;;;23.58;49.36;97228.56;5033686;28;20104;-42
2022/10/09 10:13:56;;;;;;;5.65;4.60;;;;;;;23.61;49.42;97220.00;5033428;28;20029;-42
2022/10/09 10:16:27;;;;;;;5.50;4.82;;;;;;;23.51;50.12;97218.69;5033485;28;20108;-42
2022/10/09 10:18:55;;;;;;;10.50;4.32;;;;;;;23.59;49.94;97219.75;5019210;28;20377;-42
2022/10/09 10:21:21;;;;;;;5.55;4.88;;;;;;;23.46;50.27;97224.16;5026279;28;20037;-42
2022/10/09 10:24:02;;;;;;;6.13;4.28;;;;;;;23.53;50.10;97216.19;5033415;28;20040;-42
2022/10/09 10:26:33;;;;;;;5.05;4.47;;;;;;;23.69;49.54;97217.53;5031826;28;20112;-42
2022/10/09 10:29:14;;;;;;;7.00;4.75;;;;;;;23.43;49.94;97211.31;5021676;28;20032;-42
2022/10/09 10:32:01;;;;;;;6.82;4.05;;;;;;;23.71;49.21;97214.28;5032383;28;20025;-42
2022/10/09 10:34:50;;;;;;;6.07;4.53;;;;;;;23.63;49.51;97203.66;5025134;28;20037;-41
2022/10/09 10:37:37;;;;;;;4.32;3.70;;;;;;;23.70;48.81;97201.69;5025359;28;20060;-43
2022/10/09 10:40:14;;;;;;;6.45;3.90;;;;;;;23.62;49.61;97206.91;5019829;28;20061;-42
2022/10/09 10:43:12;;;;;;;5.63;4.20;;;;;;;23.48;49.72;97197.50;5031901;28;20029;-42
2022/10/09 10:45:56;;;;;;;5.28;4.15;;;;;;;23.53;49.97;97196.81;5029894;28;20133;-43
2022/10/09 10:48:32;;;;;;;5.55;4.15;;;;;;;23.75;49.04;97198.94;5032779;28;20029;-42
2022/10/09 10:51:12;;;;;;;5.32;4.22;;;;;;;23.73;49.13;97197.94;5032121;28;20380;-41
2022/10/09 10:53:56;;;;;;;3.90;3.42;;;;;;;23.70;49.35;97194.13;5031071;28;20025;-42
2022/10/09 10:56:39;;;;;;;5.88;4.15;;;;;;;23.52;50.37;97195.28;5020098;28;20504;-41
2022/10/09 10:59:35;;;;;;;6.00;3.63;;;;;;;23.73;49.24;97198.69;5013048;28;20061;-42
2022/10/09 11:02:28;;;;;;;4.45;3.45;;;;;;;23.81;48.92;97202.50;5012795;28;20032;-43
2022/10/09 11:05:11;;;;;;;6.50;4.93;;;;;;;23.46;50.69;97208.31;5011636;28;20076;-41
2022/10/09 11:07:37;;;;;;;6.88;4.65;;;;;;;23.44;50.47;97210.06;5012720;28;20029;-42
2022/10/09 11:10:28;;;;;;;4.40;4.00;;;;;;;23.50;49.91;97202.53;5012856;28;20164;-43
2022/10/09 11:12:56;;;;;;;4.60;3.63;;;;;;;23.49;49.80;97195.50;5012615;28;20485;-42
2022/10/09 11:15:30;;;;;;;4.57;3.40;;;;;;;23.49;49.84;97199.00;5030580;28;20033;-41
2022/10/09 11:18:06;;;;;;;5.03;3.78;;;;;;;23.76;49.09;97196.91;5034277;28;20030;-41
2022/10/09 11:20:37;;;;;;;4.47;3.50;;;;;;;23.63;49.23;97192.56;5034340;28;20389;-42
2022/10/09 11:23:03;;;;;;;5.78;4.00;;;;;;;23.71;49.11;97192.13;5034317;28;20061;-43
2022/10/09 11:25:34;;;;;;;6.47;4.00;;;;;;;23.73;48.93;97195.94;5034294;28;20032;-42
2022/10/09 11:28:08;;;;;;;4.47;3.75;;;;;;;23.82;49.06;97195.72;5034097;28;20068;-43
2022/10/09 11:30:46;;;;;;;4.15;3.50;;;;;;;23.69;49.41;97192.63;5034516;28;20029;-42
2022/10/09 11:33:34;;;;;;;4.88;3.80;;;;;;;23.81;48.91;97196.97;5034190;28;20060;-42
2022/10/09 11:36:11;;;;;;;3.88;3.47;;;;;;;23.62;49.38;97198.59;5033933;28;20021;-42
2022/10/09 11:38:42;;;;;;;5.15;3.97;;;;;;;23.48;49.97;97188.44;5033746;28;20460;-39
2022/10/09 11:41:08;;;;;;;5.93;3.80;;;;;;;23.45;49.73;97181.13;5034120;28;20091;-30
2022/10/09 11:43:53;;;;;;;12.75;4.68;;;;;;;22.92;51.68;97185.28;5033776;28;20029;-43
2022/10/09 11:46:22;;;;;;;15.13;5.60;;;;;;;23.43;50.50;97189.16;5034081;28;20052;-43
2022/10/09 11:48:48;;;;;;;20.20;5.20;;;;;;;23.65;49.57;97183.78;5033762;28;20075;-42